createdAt,value
2022-09-23T00:00:09.841Z,90.95
2022-09-23T00:02:36.867Z,90.93
2022-09-23T00:05:03.596Z,90.36
2022-09-23T00:07:30.705Z,90.05
2022-09-23T00:09:57.325Z,89.93
2022-09-23T00:12:26.729Z,90.50
2022-09-23T00:14:53.423Z,90.33
2022-09-23T00:17:20.026Z,90.78
2022-09-23T00:19:46.674Z,90.29
2022-09-23T00:22:13.243Z,90.54
2022-09-23T00:24:39.830Z,90.74
2022-09-23T00:27:06.412Z,90.86
2022-09-23T00:29:33.193Z,90.08
2022-09-23T00:31:59.824Z,89.56
2022-09-23T00:34:26.549Z,89.04
2022-09-23T00:36:53.180Z,89.39
2022-09-23T00:39:19.842Z,90.15
2022-09-23T00:41:46.462Z,90.66
2022-09-23T00:44:42.466Z,90.73
2022-09-23T00:47:32.231Z,91.24
2022-09-23T00:50:12.534Z,90.90
2022-09-23T00:52:39.193Z,89.80
2022-09-23T00:55:08.639Z,90.63
2022-09-23T00:57:35.491Z,90.71
2022-09-23T01:00:02.473Z,90.61
2022-09-23T01:02:29.162Z,90.28
2022-09-23T01:04:55.720Z,90.91
2022-09-23T01:07:22.515Z,90.95
2022-09-23T01:09:49.301Z,90.52
2022-09-23T01:12:34.340Z,90.43
2022-09-23T01:15:18.592Z,91.63
2022-09-23T01:18:01.571Z,91.44
2022-09-23T01:20:41.539Z,90.91
2022-09-23T01:23:45.491Z,90.63
2022-09-23T01:26:44.096Z,90.28
2022-09-23T01:29:28.275Z,90.39
2022-09-23T01:32:04.007Z,89.83
2022-09-23T01:34:54.957Z,90.19
2022-09-23T01:37:26.843Z,91.22
2022-09-23T01:40:01.880Z,91.93
2022-09-23T01:42:44.453Z,90.73
2022-09-23T01:45:17.081Z,90.48
2022-09-23T01:48:03.065Z,89.68
2022-09-23T01:50:30.785Z,90.22
2022-09-23T01:53:00.447Z,90.75
2022-09-23T01:55:29.288Z,91.50
2022-09-23T01:57:59.359Z,91.37
2022-09-23T02:00:25.932Z,91.77
2022-09-23T02:02:55.001Z,90.96
2022-09-23T02:05:24.796Z,90.80
2022-09-23T02:07:59.965Z,90.59
2022-09-23T02:10:38.671Z,90.86
2022-09-23T02:13:17.938Z,91.21
2022-09-23T02:15:48.014Z,91.06
2022-09-23T02:18:26.353Z,91.65
2022-09-23T02:20:55.949Z,90.94
2022-09-23T02:23:30.523Z,90.26
2022-09-23T02:25:59.892Z,91.07
2022-09-23T02:28:34.465Z,91.20
2022-09-23T02:31:10.820Z,91.29
2022-09-23T02:33:41.749Z,90.70
2022-09-23T02:36:49.108Z,90.84
2022-09-23T02:39:15.788Z,90.07
2022-09-23T02:42:08.765Z,90.41
2022-09-23T02:44:35.369Z,90.72
2022-09-23T02:47:01.943Z,91.43
2022-09-23T02:49:29.530Z,90.62
2022-09-23T02:51:56.743Z,91.00
2022-09-23T02:54:26.128Z,91.03
2022-09-23T02:56:53.155Z,91.51
2022-09-23T02:59:20.987Z,91.45
2022-09-23T03:02:12.484Z,91.84
2022-09-23T03:04:45.152Z,91.23
2022-09-23T03:07:25.544Z,91.17
2022-09-23T03:10:13.564Z,90.37
2022-09-23T03:13:08.753Z,90.37
2022-09-23T03:15:57.042Z,90.99
2022-09-23T03:18:40.745Z,91.10
2022-09-23T03:21:19.884Z,91.40
2022-09-23T03:23:46.582Z,91.01
2022-09-23T03:26:28.826Z,90.72
2022-09-23T03:28:55.443Z,90.61
2022-09-23T03:31:22.594Z,90.83
2022-09-23T03:33:55.005Z,91.21
2022-09-23T03:36:27.345Z,91.39
2022-09-23T03:39:01.324Z,91.71
2022-09-23T03:41:37.445Z,90.60
2022-09-23T03:44:04.066Z,90.33
2022-09-23T03:46:30.641Z,90.49
2022-09-23T03:48:59.921Z,90.58
2022-09-23T03:51:26.693Z,90.99
2022-09-23T03:53:53.711Z,91.88
2022-09-23T03:56:20.342Z,91.65
2022-09-23T03:58:46.995Z,91.34
2022-09-23T04:01:13.682Z,91.63
2022-09-23T04:03:40.602Z,90.74
2022-09-23T04:06:07.205Z,91.67
2022-09-23T04:08:34.016Z,91.13
2022-09-23T04:11:03.729Z,90.85
2022-09-23T04:13:30.656Z,90.95
2022-09-23T04:15:57.386Z,90.84
2022-09-23T04:18:24.131Z,91.19
2022-09-23T04:20:50.730Z,91.57
2022-09-23T04:23:17.279Z,91.42
2022-09-23T04:25:45.868Z,91.79
2022-09-23T04:28:12.487Z,91.74
2022-09-23T04:30:42.952Z,91.22
2022-09-23T04:33:10.553Z,91.80
2022-09-23T04:35:40.157Z,92.36
2022-09-23T04:38:07.140Z,91.95
2022-09-23T04:40:33.998Z,90.45
2022-09-23T04:43:00.660Z,90.80
2022-09-23T04:45:27.345Z,91.15
2022-09-23T04:47:54.245Z,90.97
2022-09-23T04:50:21.221Z,91.44
2022-09-23T04:52:47.780Z,92.15
2022-09-23T04:55:14.330Z,91.80
2022-09-23T04:57:40.944Z,90.88
2022-09-23T05:00:08.267Z,90.48
2022-09-23T05:02:34.961Z,90.78
2022-09-23T05:05:01.636Z,91.26
2022-09-23T05:07:28.238Z,91.35
2022-09-23T05:09:54.835Z,91.08
2022-09-23T05:12:21.528Z,91.38
2022-09-23T05:14:48.059Z,91.70
2022-09-23T05:17:14.577Z,92.07
2022-09-23T05:19:41.201Z,90.92
2022-09-23T05:22:07.860Z,91.68
2022-09-23T05:24:34.439Z,91.79
2022-09-23T05:27:01.114Z,91.96
2022-09-23T05:29:27.713Z,91.63
2022-09-23T05:31:54.440Z,91.15
2022-09-23T05:34:21.066Z,91.78
2022-09-23T05:36:47.584Z,91.12
2022-09-23T05:39:14.290Z,91.29
2022-09-23T05:41:41.039Z,91.92
2022-09-23T05:44:10.013Z,91.68
2022-09-23T05:46:36.764Z,92.11
2022-09-23T05:49:03.781Z,91.67
2022-09-23T05:51:31.385Z,91.69
2022-09-23T05:53:58.642Z,91.86
2022-09-23T05:56:26.601Z,91.63
2022-09-23T05:58:53.969Z,91.96
2022-09-23T06:01:21.805Z,92.13
2022-09-23T06:03:48.780Z,92.18
2022-09-23T06:06:16.062Z,92.10
2022-09-23T06:08:42.932Z,91.47
2022-09-23T06:11:09.629Z,91.51
2022-09-23T06:13:37.369Z,91.72
2022-09-23T06:16:16.534Z,91.59
2022-09-23T06:18:44.330Z,91.91
2022-09-23T06:21:16.494Z,92.23
2022-09-23T06:23:43.469Z,91.62
2022-09-23T06:26:11.369Z,91.69
2022-09-23T06:28:38.900Z,92.39
2022-09-23T06:31:13.764Z,92.73
2022-09-23T06:33:43.767Z,92.77
2022-09-23T06:36:10.848Z,92.20
2022-09-23T06:38:44.293Z,92.60
2022-09-23T06:41:11.522Z,92.09
2022-09-23T06:43:38.157Z,92.51
2022-09-23T06:46:05.409Z,92.34
2022-09-23T06:48:33.136Z,93.47
2022-09-23T06:50:59.885Z,93.53
2022-09-23T06:53:26.433Z,93.75
2022-09-23T06:56:00.090Z,94.03
2022-09-23T06:58:26.986Z,94.32
2022-09-23T07:00:53.981Z,94.73
2022-09-23T07:03:20.614Z,94.03
2022-09-23T07:05:47.236Z,94.22
2022-09-23T07:08:13.893Z,93.72
2022-09-23T07:10:40.512Z,94.53
2022-09-23T07:13:07.201Z,94.32
2022-09-23T07:15:33.787Z,94.91
2022-09-23T07:18:00.562Z,95.53
2022-09-23T07:20:27.285Z,95.63
2022-09-23T07:22:53.929Z,96.07
2022-09-23T07:25:20.566Z,96.67
2022-09-23T07:27:47.353Z,98.05
2022-09-23T07:30:24.006Z,97.59
2022-09-23T07:32:51.971Z,98.15
2022-09-23T07:35:21.725Z,97.24
2022-09-23T07:37:50.291Z,94.85
2022-09-23T07:40:16.959Z,86.05
2022-09-23T07:42:43.596Z,78.61
2022-09-23T07:45:10.269Z,74.99
2022-09-23T07:47:36.894Z,72.24
2022-09-23T07:50:03.639Z,72.18
2022-09-23T07:52:30.306Z,71.41
2022-09-23T07:54:56.945Z,68.78
2022-09-23T07:57:23.653Z,66.45
2022-09-23T07:59:50.796Z,66.15
2022-09-23T08:02:17.452Z,63.64
2022-09-23T08:04:44.113Z,63.83
2022-09-23T08:07:12.310Z,63.54
2022-09-23T08:09:40.786Z,62.97
2022-09-23T08:12:15.938Z,61.39
2022-09-23T08:14:42.807Z,61.01
2022-09-23T08:17:09.562Z,58.95
2022-09-23T08:19:37.842Z,55.48
2022-09-23T08:22:04.494Z,57.88
2022-09-23T08:24:31.954Z,56.24
2022-09-23T08:26:58.569Z,56.00
2022-09-23T08:29:26.098Z,57.14
2022-09-23T08:31:53.056Z,56.72
2022-09-23T08:34:20.341Z,57.34
2022-09-23T08:36:47.179Z,54.22
2022-09-23T08:39:17.711Z,52.78
2022-09-23T08:41:59.301Z,52.27
2022-09-23T08:44:48.901Z,53.11
2022-09-23T08:47:41.937Z,48.21
2022-09-23T08:50:11.291Z,50.34
2022-09-23T08:52:51.573Z,47.72
2022-09-23T08:55:18.449Z,47.25
2022-09-23T08:58:26.650Z,46.47
2022-09-23T09:01:22.657Z,48.41
2022-09-23T09:03:52.019Z,45.08
2022-09-23T09:06:27.880Z,46.59
2022-09-23T09:09:01.603Z,48.92
2022-09-23T09:11:34.262Z,50.52
2022-09-23T09:14:22.478Z,46.66
2022-09-23T09:17:01.636Z,44.07
2022-09-23T09:19:49.925Z,41.42
2022-09-23T09:22:38.729Z,45.49
2022-09-23T09:25:14.403Z,44.34
2022-09-23T09:27:41.166Z,41.44
2022-09-23T09:30:12.841Z,43.65
2022-09-23T09:32:42.887Z,43.11
2022-09-23T09:35:18.234Z,45.16
2022-09-23T09:37:46.827Z,44.98
2022-09-23T09:40:13.801Z,40.81
2022-09-23T09:42:41.590Z,41.97
2022-09-23T09:45:13.516Z,45.15
2022-09-23T09:47:42.256Z,43.30
2022-09-23T09:50:10.389Z,43.27
2022-09-23T09:52:43.770Z,39.80
2022-09-23T09:55:12.994Z,38.64
2022-09-23T09:58:00.755Z,39.70
2022-09-23T10:00:27.635Z,40.30
2022-09-23T10:02:57.938Z,38.77
2022-09-23T10:05:26.997Z,40.96
2022-09-23T10:07:53.851Z,41.77
2022-09-23T10:10:32.453Z,43.37
2022-09-23T10:13:00.626Z,41.41
2022-09-23T10:15:29.104Z,36.74
2022-09-23T10:17:55.765Z,37.39
2022-09-23T10:20:22.490Z,38.46
2022-09-23T10:22:49.264Z,38.82
2022-09-23T10:25:17.660Z,40.09
2022-09-23T10:27:44.244Z,40.74
2022-09-23T10:30:25.249Z,40.41
2022-09-23T10:32:52.611Z,39.10
2022-09-23T10:35:20.693Z,38.23
2022-09-23T10:37:52.934Z,41.94
2022-09-23T10:40:39.321Z,38.85
2022-09-23T10:43:19.698Z,40.10
2022-09-23T10:45:49.689Z,43.26
2022-09-23T10:48:28.285Z,41.31
2022-09-23T10:50:54.961Z,45.82
2022-09-23T10:53:34.674Z,43.94
2022-09-23T10:56:25.485Z,48.12
2022-09-23T10:58:58.079Z,45.14
2022-09-23T11:01:35.463Z,49.23
2022-09-23T11:04:44.540Z,49.50
2022-09-23T11:07:12.613Z,48.78
2022-09-23T11:10:29.090Z,45.05
2022-09-23T11:13:42.660Z,45.01
2022-09-23T11:16:15.548Z,48.74
2022-09-23T11:19:19.666Z,48.26
2022-09-23T11:21:59.436Z,47.13
2022-09-23T11:24:42.630Z,46.92
2022-09-23T11:27:27.750Z,48.82
2022-09-23T11:30:07.675Z,45.01
2022-09-23T11:32:56.708Z,45.58
2022-09-23T11:35:28.112Z,46.76
2022-09-23T11:38:00.847Z,45.30
2022-09-23T11:40:30.936Z,49.05
2022-09-23T11:43:02.866Z,45.92
2022-09-23T11:45:34.683Z,47.60
2022-09-23T11:48:23.568Z,47.26
2022-09-23T11:51:17.670Z,47.29
2022-09-23T11:53:49.869Z,44.23
2022-09-23T11:56:34.840Z,47.40
2022-09-23T11:59:11.626Z,46.43
2022-09-23T12:01:45.389Z,43.84
2022-09-23T12:04:39.731Z,48.00
2022-09-23T12:07:20.051Z,45.43
2022-09-23T12:10:02.779Z,48.65
2022-09-23T12:12:37.406Z,46.54
2022-09-23T12:15:09.861Z,46.17
2022-09-23T12:18:00.875Z,47.64
2022-09-23T12:20:48.721Z,42.95
2022-09-23T12:23:47.654Z,46.56
2022-09-23T12:26:19.507Z,46.70
2022-09-23T12:28:47.248Z,44.57
2022-09-23T12:31:17.338Z,45.41
2022-09-23T12:33:51.145Z,45.41
2022-09-23T12:36:17.706Z,47.18
2022-09-23T12:38:49.482Z,46.44
2022-09-23T12:41:36.249Z,48.18
2022-09-23T12:44:12.002Z,47.33
2022-09-23T12:46:45.287Z,48.45
2022-09-23T12:49:30.162Z,47.73
2022-09-23T12:52:11.772Z,49.39
2022-09-23T12:54:40.368Z,49.37
2022-09-23T12:57:11.018Z,48.01
2022-09-23T13:00:08.634Z,45.06
2022-09-23T13:02:43.370Z,46.54
2022-09-23T13:05:23.395Z,44.89
2022-09-23T13:07:50.114Z,45.37
2022-09-23T13:10:53.718Z,47.71
2022-09-23T13:13:24.685Z,47.03
2022-09-23T13:15:52.563Z,47.53
2022-09-23T13:18:19.015Z,46.02
2022-09-23T13:20:46.029Z,46.15
2022-09-23T13:23:25.644Z,45.91
2022-09-23T13:25:54.505Z,41.95
2022-09-23T13:28:54.520Z,44.55
2022-09-23T13:31:21.391Z,43.89
2022-09-23T13:33:53.173Z,41.66
2022-09-23T13:36:20.056Z,42.69
2022-09-23T13:38:46.687Z,42.05
2022-09-23T13:41:18.452Z,40.11
2022-09-23T13:43:57.657Z,41.46
2022-09-23T13:46:34.336Z,43.35
2022-09-23T13:49:00.889Z,41.34
2022-09-23T13:51:33.064Z,42.20
2022-09-23T13:54:00.899Z,40.93
2022-09-23T13:56:29.377Z,43.97
2022-09-23T13:59:24.121Z,44.59
2022-09-23T14:01:50.815Z,46.17
2022-09-23T14:04:26.985Z,44.75
2022-09-23T14:06:53.805Z,43.50
2022-09-23T14:09:21.312Z,45.06
2022-09-23T14:11:48.893Z,44.15
2022-09-23T14:14:15.585Z,42.82
2022-09-23T14:16:42.299Z,46.08
2022-09-23T14:19:17.240Z,42.74
2022-09-23T14:21:43.875Z,45.95
2022-09-23T14:24:10.476Z,45.45
2022-09-23T14:26:37.251Z,44.89
2022-09-23T14:29:03.898Z,44.23
2022-09-23T14:31:30.691Z,44.36
2022-09-23T14:33:57.372Z,46.96
2022-09-23T14:36:24.034Z,45.99
2022-09-23T14:38:50.722Z,45.00
2022-09-23T14:41:20.691Z,44.90
2022-09-23T14:44:07.634Z,45.66
2022-09-23T14:46:35.552Z,44.87
2022-09-23T14:49:11.255Z,45.75
2022-09-23T14:51:53.432Z,50.98
2022-09-23T14:54:28.913Z,50.13
2022-09-23T14:56:56.007Z,45.97
2022-09-23T14:59:33.860Z,51.61
2022-09-23T15:02:00.524Z,52.44
2022-09-23T15:04:29.218Z,49.28
2022-09-23T15:07:16.077Z,45.31
2022-09-23T15:09:42.831Z,47.60
2022-09-23T15:12:14.694Z,51.49
2022-09-23T15:14:43.505Z,53.05
2022-09-23T15:17:35.162Z,48.97
2022-09-23T15:20:17.596Z,46.71
2022-09-23T15:22:45.645Z,48.93
2022-09-23T15:25:32.011Z,50.90
2022-09-23T15:28:01.436Z,51.58
2022-09-23T15:30:28.419Z,48.58
2022-09-23T15:32:55.086Z,54.22
2022-09-23T15:35:23.437Z,52.90
2022-09-23T15:37:50.143Z,52.84
2022-09-23T15:40:27.547Z,50.86
2022-09-23T15:42:58.329Z,52.16
2022-09-23T15:45:38.907Z,51.64
2022-09-23T15:48:07.268Z,49.80
2022-09-23T15:50:34.940Z,54.84
2022-09-23T15:53:01.606Z,54.22
2022-09-23T15:55:28.318Z,50.82
2022-09-23T15:57:54.941Z,57.81
2022-09-23T16:00:21.536Z,60.39
2022-09-23T16:02:48.910Z,60.16
2022-09-23T16:05:28.609Z,62.06
2022-09-23T16:07:55.524Z,62.60
2022-09-23T16:10:23.085Z,61.66
2022-09-23T16:12:49.797Z,59.71
2022-09-23T16:15:18.115Z,63.81
2022-09-23T16:17:44.764Z,63.90
2022-09-23T16:20:12.406Z,64.08
2022-09-23T16:22:39.019Z,63.70
2022-09-23T16:25:06.237Z,64.48
2022-09-23T16:27:33.136Z,67.02
2022-09-23T16:29:59.859Z,67.79
2022-09-23T16:32:26.595Z,67.81
2022-09-23T16:34:53.222Z,69.42
2022-09-23T16:37:19.799Z,71.10
2022-09-23T16:39:48.110Z,72.47
2022-09-23T16:42:14.763Z,73.58
2022-09-23T16:44:41.434Z,73.77
2022-09-23T16:47:08.194Z,74.66
2022-09-23T16:49:35.103Z,75.63
2022-09-23T16:52:01.827Z,76.75
2022-09-23T16:54:29.058Z,76.61
2022-09-23T16:56:55.703Z,76.83
2022-09-23T16:59:22.328Z,77.20
2022-09-23T17:01:49.037Z,77.60
2022-09-23T17:04:16.462Z,78.03
2022-09-23T17:06:46.050Z,78.68
2022-09-23T17:09:12.550Z,79.13
2022-09-23T17:11:40.003Z,79.73
2022-09-23T17:14:06.567Z,79.54
2022-09-23T17:16:33.683Z,79.08
2022-09-23T17:19:01.206Z,80.02
2022-09-23T17:21:27.943Z,79.56
2022-09-23T17:23:54.783Z,80.28
2022-09-23T17:26:21.977Z,80.42
2022-09-23T17:28:49.424Z,80.99
2022-09-23T17:31:16.097Z,80.40
2022-09-23T17:33:42.804Z,80.41
2022-09-23T17:36:10.696Z,80.27
2022-09-23T17:38:37.350Z,80.24
2022-09-23T17:41:03.953Z,80.19
2022-09-23T17:43:30.610Z,80.57
2022-09-23T17:46:03.355Z,80.93
2022-09-23T17:48:30.753Z,80.98
2022-09-23T17:50:57.736Z,81.08
2022-09-23T17:53:24.376Z,81.74
2022-09-23T17:55:55.565Z,82.07
2022-09-23T17:58:26.921Z,83.21
2022-09-23T18:00:54.547Z,82.80
2022-09-23T18:03:21.378Z,82.29
2022-09-23T18:05:47.854Z,82.38
2022-09-23T18:08:14.399Z,81.39
2022-09-23T18:10:41.010Z,82.54
2022-09-23T18:13:07.489Z,82.42
2022-09-23T18:15:37.832Z,82.24
2022-09-23T18:18:04.994Z,82.20
2022-09-23T18:20:31.666Z,81.80
2022-09-23T18:22:58.702Z,83.18
2022-09-23T18:25:38.583Z,82.75
2022-09-23T18:28:05.914Z,84.00
2022-09-23T18:30:32.420Z,83.46
2022-09-23T18:32:59.408Z,83.61
2022-09-23T18:35:26.182Z,84.43
2022-09-23T18:37:53.054Z,84.13
2022-09-23T18:40:19.641Z,84.13
2022-09-23T18:42:46.200Z,84.42
2022-09-23T18:45:12.787Z,84.13
2022-09-23T18:47:42.958Z,84.93
2022-09-23T18:50:12.499Z,84.04
2022-09-23T18:52:39.019Z,84.50
2022-09-23T18:55:05.770Z,84.70
2022-09-23T18:57:32.409Z,84.32
2022-09-23T18:59:59.293Z,84.51
2022-09-23T19:02:26.827Z,85.89
2022-09-23T19:04:53.475Z,85.27
2022-09-23T19:07:20.280Z,85.42
2022-09-23T19:09:46.800Z,85.25
2022-09-23T19:12:13.379Z,85.40
2022-09-23T19:14:39.896Z,85.65
2022-09-23T19:17:06.470Z,85.33
2022-09-23T19:19:33.140Z,85.13
2022-09-23T19:21:59.689Z,85.20
2022-09-23T19:24:26.226Z,86.14
2022-09-23T19:26:52.766Z,85.14
2022-09-23T19:29:19.439Z,84.81
2022-09-23T19:31:46.238Z,83.77
2022-09-23T19:34:14.396Z,84.35
2022-09-23T19:36:42.526Z,85.51
2022-09-23T19:39:19.264Z,85.96
2022-09-23T19:41:46.104Z,86.02
2022-09-23T19:44:12.818Z,86.28
2022-09-23T19:46:40.819Z,86.25
2022-09-23T19:49:07.507Z,86.18
2022-09-23T19:51:35.710Z,85.92
2022-09-23T19:54:03.321Z,85.48
2022-09-23T19:56:31.116Z,86.90
2022-09-23T19:58:58.420Z,86.71
2022-09-23T20:01:25.903Z,87.42
2022-09-23T20:03:52.682Z,87.55
2022-09-23T20:06:19.790Z,86.48
2022-09-23T20:08:46.692Z,86.32
2022-09-23T20:11:14.024Z,87.10
2022-09-23T20:13:41.124Z,86.74
2022-09-23T20:16:08.122Z,87.18
2022-09-23T20:18:36.526Z,86.32
2022-09-23T20:21:04.119Z,86.69
2022-09-23T20:23:30.769Z,87.32
2022-09-23T20:25:58.140Z,87.42
2022-09-23T20:28:24.758Z,86.70
2022-09-23T20:30:51.519Z,87.47
2022-09-23T20:33:18.121Z,87.75
2022-09-23T20:35:44.711Z,87.98
2022-09-23T20:38:11.354Z,88.22
2022-09-23T20:40:38.023Z,87.34
2022-09-23T20:43:04.975Z,87.68
2022-09-23T20:45:31.637Z,87.65
2022-09-23T20:47:58.270Z,0.00
2022-09-23T20:50:24.913Z,87.44
2022-09-23T20:52:52.083Z,87.14
2022-09-23T20:55:20.834Z,88.30
2022-09-23T20:57:47.924Z,88.21
2022-09-23T21:00:14.993Z,87.93
2022-09-23T21:02:43.354Z,88.94
2022-09-23T21:05:09.922Z,89.10
2022-09-23T21:07:36.728Z,88.91
2022-09-23T21:10:03.567Z,88.36
2022-09-23T21:12:30.204Z,89.01
2022-09-23T21:14:56.995Z,89.79
2022-09-23T21:17:23.691Z,88.33
2022-09-23T21:19:50.498Z,87.71
2022-09-23T21:22:17.241Z,88.16
2022-09-23T21:25:25.607Z,89.47
2022-09-23T21:27:30.397Z,89.80
2022-09-23T21:29:57.318Z,89.18
2022-09-23T21:32:23.924Z,90.46
2022-09-23T21:34:50.483Z,90.32
2022-09-23T21:37:17.005Z,88.32
2022-09-23T21:39:43.903Z,89.42
2022-09-23T21:42:10.744Z,89.20
2022-09-23T21:44:37.540Z,89.55
2022-09-23T21:47:04.141Z,90.25
2022-09-23T21:49:30.749Z,89.37
2022-09-23T21:51:57.382Z,89.14
2022-09-23T21:54:24.503Z,88.76
2022-09-23T21:56:51.122Z,89.31
2022-09-23T21:59:17.804Z,89.95
2022-09-23T22:01:44.964Z,90.27
2022-09-23T22:04:15.935Z,88.93
2022-09-23T22:06:42.690Z,90.59
2022-09-23T22:09:12.017Z,90.16
2022-09-23T22:11:38.689Z,89.85
2022-09-23T22:14:06.491Z,89.84
2022-09-23T22:16:33.383Z,89.83
2022-09-23T22:19:00.112Z,90.51
2022-09-23T22:21:29.982Z,89.80
2022-09-23T22:23:57.975Z,90.78
2022-09-23T22:26:25.469Z,90.28
2022-09-23T22:28:52.393Z,89.74
2022-09-23T22:31:19.199Z,89.93
2022-09-23T22:33:45.784Z,90.53
2022-09-23T22:36:12.398Z,89.86
2022-09-23T22:38:38.923Z,90.85
2022-09-23T22:41:05.754Z,89.88
2022-09-23T22:43:32.846Z,90.38
2022-09-23T22:45:59.500Z,90.67
2022-09-23T22:48:26.203Z,90.93
2022-09-23T22:50:52.860Z,89.78
2022-09-23T22:53:19.535Z,90.21
2022-09-23T22:55:46.263Z,90.01
2022-09-23T22:58:31.222Z,91.10
2022-09-23T23:00:59.327Z,90.83
2022-09-23T23:03:25.995Z,91.58
2022-09-23T23:05:59.613Z,91.09
2022-09-23T23:08:26.186Z,91.67
2022-09-23T23:10:52.860Z,90.56
2022-09-23T23:13:19.988Z,91.23
2022-09-23T23:15:46.669Z,92.38
2022-09-23T23:18:13.315Z,91.53
2022-09-23T23:20:40.246Z,92.01
2022-09-23T23:23:06.746Z,91.38
2022-09-23T23:25:33.300Z,92.09
2022-09-23T23:27:59.947Z,91.54
2022-09-23T23:30:27.415Z,91.80
2022-09-23T23:32:53.953Z,91.45
2022-09-23T23:35:20.582Z,92.02
2022-09-23T23:37:47.199Z,91.72
2022-09-23T23:40:14.039Z,91.45
2022-09-23T23:42:40.679Z,92.27
2022-09-23T23:45:07.911Z,92.33
2022-09-23T23:47:34.571Z,92.59
2022-09-23T23:50:01.156Z,91.98
2022-09-23T23:52:27.733Z,91.10
2022-09-23T23:54:54.351Z,91.77
2022-09-23T23:57:20.942Z,92.19
2022-09-23T23:59:47.600Z,92.42
